Time;durP1;ratioP1;P1;durP2;ratioP2;P2;SDS_P1;SDS_P2;PMS_P1;PMS_P2;Temp;Humidity;BMP_temperature;BMP_pressure;BME280_temperature;BME280_humidity;BME280_pressure;Samples;Min_cycle;Max_cycle;Signal;HPM_P1;HPM_P2
2021/04/27 00:00:00;;;;;;;16.73;5.87;;;13.20;99.90;;;;;;5001295;28;20181;-71
2021/04/27 00:02:27;;;;;;;20.57;6.00;;;13.20;99.90;;;;;;5004251;28;20192;-72
2021/04/27 00:04:53;;;;;;;20.13;5.83;;;13.30;99.90;;;;;;4989879;28;20197;-73
2021/04/27 00:07:20;;;;;;;17.90;6.00;;;13.30;99.90;;;;;;5004625;28;21467;-72
2021/04/27 00:09:47;;;;;;;21.90;6.20;;;13.30;99.90;;;;;;5005405;28;20235;-72
2021/04/27 00:12:14;;;;;;;21.47;5.70;;;13.30;99.90;;;;;;5006987;28;20680;-72
2021/04/27 00:14:40;;;;;;;22.13;6.50;;;13.30;99.90;;;;;;5008532;28;20200;-72
2021/04/27 00:17:08;;;;;;;16.23;5.30;;;13.30;99.90;;;;;;4999288;28;20197;-71
2021/04/27 00:19:34;;;;;;;17.40;4.90;;;13.10;99.90;;;;;;5006621;28;20188;-71
2021/04/27 00:22:01;;;;;;;12.20;4.60;;;13.10;99.90;;;;;;5001586;28;20182;-72
2021/04/27 00:24:30;;;;;;;22.87;4.87;;;13.10;99.90;;;;;;5009010;28;20874;-71
2021/04/27 00:26:59;;;;;;;25.90;5.73;;;13.10;99.90;;;;;;5015388;28;20177;-71
2021/04/27 00:29:25;;;;;;;13.40;4.37;;;13.10;99.90;;;;;;5006581;28;20184;-71
2021/04/27 00:31:54;;;;;;;15.83;4.87;;;13.20;99.90;;;;;;4991201;28;20954;-71
2021/04/27 00:34:22;;;;;;;26.17;5.67;;;13.30;99.90;;;;;;5004751;28;20773;-71
2021/04/27 00:36:48;;;;;;;28.00;5.27;;;13.20;99.90;;;;;;4987250;28;20188;-71
2021/04/27 00:39:15;;;;;;;13.80;5.27;;;13.20;99.90;;;;;;5002658;28;20271;-71
2021/04/27 00:41:42;;;;;;;18.97;4.27;;;13.10;99.90;;;;;;4998569;28;20182;-71
2021/04/27 00:44:09;;;;;;;17.07;4.40;;;13.10;99.90;;;;;;5002073;28;21051;-71
2021/04/27 00:46:35;;;;;;;18.83;4.13;;;13.10;99.90;;;;;;4999055;28;20697;-71
2021/04/27 00:49:02;;;;;;;15.67;3.47;;;13.10;99.90;;;;;;5016610;28;20178;-71
2021/04/27 00:51:28;;;;;;;18.67;3.47;;;13.20;99.90;;;;;;5004561;28;20193;-71
2021/04/27 00:53:54;;;;;;;17.33;3.73;;;13.40;99.90;;;;;;5019251;28;20264;-71
2021/04/27 00:56:22;;;;;;;13.27;4.07;;;13.50;99.90;;;;;;5020306;28;20353;-71
2021/04/27 00:58:49;;;;;;;21.27;4.27;;;13.50;99.90;;;;;;4983168;28;20250;-71
2021/04/27 01:01:15;;;;;;;16.37;4.23;;;13.50;99.90;;;;;;4993138;28;20713;-71
2021/04/27 01:03:42;;;;;;;16.37;3.70;;;13.40;99.90;;;;;;5012655;28;20213;-71
2021/04/27 01:06:09;;;;;;;18.50;3.97;;;13.30;99.90;;;;;;5002711;28;20203;-71
2021/04/27 01:08:44;;;;;;;19.43;3.63;;;13.20;99.90;;;;;;4994667;28;20633;-71
2021/04/27 01:11:29;;;;;;;16.30;3.83;;;13.20;99.90;;;;;;5002219;28;20189;-71
2021/04/27 01:14:10;;;;;;;15.10;3.60;;;13.20;99.90;;;;;;5003196;28;20223;-71
2021/04/27 01:16:56;;;;;;;17.37;3.60;;;13.40;99.90;;;;;;5004787;28;20243;-71
2021/04/27 01:19:33;;;;;;;13.30;3.27;;;13.40;99.90;;;;;;5003252;28;20230;-71
2021/04/27 01:22:01;;;;;;;13.33;3.70;;;13.60;99.90;;;;;;4985762;28;20560;-70
2021/04/27 01:25:03;;;;;;;12.43;3.40;;;13.60;99.90;;;;;;5007998;28;20295;-71
2021/04/27 01:27:32;;;;;;;16.43;3.47;;;13.50;99.90;;;;;;5009885;28;20192;-71
2021/04/27 01:30:00;;;;;;;16.17;3.90;;;13.40;99.90;;;;;;5002929;28;20189;-70
2021/04/27 01:32:27;;;;;;;20.50;3.80;;;13.20;99.90;;;;;;5011740;28;20185;-71
2021/04/27 01:34:55;;;;;;;19.20;3.43;;;13.20;99.90;;;;;;5012147;28;20628;-70
2021/04/27 01:37:23;;;;;;;21.23;3.57;;;13.20;99.90;;;;;;4989046;28;20192;-71
2021/04/27 01:39:50;;;;;;;15.30;3.37;;;13.20;99.90;;;;;;4989246;28;20900;-71
2021/04/27 01:42:16;;;;;;;15.70;3.27;;;13.20;99.90;;;;;;5003628;28;20200;-71
2021/04/27 01:44:44;;;;;;;17.60;3.50;;;13.30;99.90;;;;;;5002580;28;20228;-72
2021/04/27 01:47:12;;;;;;;16.40;4.03;;;13.50;99.90;;;;;;5001670;28;20661;-71
2021/04/27 01:49:43;;;;;;;13.50;3.10;;;13.70;99.90;;;;;;4987976;28;20518;-71
2021/04/27 01:52:12;;;;;;;13.63;3.17;;;13.70;99.90;;;;;;5006805;28;20188;-72
2021/04/27 01:54:38;;;;;;;16.30;3.00;;;13.70;99.90;;;;;;4986235;28;20223;-71
2021/04/27 01:57:05;;;;;;;13.57;3.13;;;13.70;99.90;;;;;;4999857;28;20204;-71
2021/04/27 01:59:32;;;;;;;16.70;3.20;;;13.80;99.90;;;;;;4994005;28;20272;-71
2021/04/27 02:01:58;;;;;;;17.53;3.03;;;13.70;99.90;;;;;;5011642;28;20185;-71
2021/04/27 02:04:28;;;;;;;12.27;2.67;;;13.60;99.90;;;;;;5010766;28;21106;-71
2021/04/27 02:06:55;;;;;;;8.27;2.70;;;13.60;99.90;;;;;;5004288;28;20674;-71
2021/04/27 02:09:26;;;;;;;11.50;2.47;;;13.60;99.90;;;;;;5008221;28;20185;-72
2021/04/27 02:11:54;;;;;;;11.20;2.87;;;13.70;99.90;;;;;;5002497;28;20184;-71
2021/04/27 02:14:30;;;;;;;19.77;3.10;;;13.70;99.90;;;;;;5006114;28;20320;-71
2021/04/27 02:17:28;;;;;;;13.73;2.80;;;13.60;99.90;;;;;;5009571;28;20203;-72
2021/04/27 02:19:57;;;;;;;10.30;2.60;;;13.60;99.90;;;;;;4991966;28;20184;-72
2021/04/27 02:22:27;;;;;;;11.07;2.70;;;13.50;99.90;;;;;;5007128;28;20192;-71
2021/04/27 02:25:01;;;;;;;9.17;2.70;;;13.50;99.90;;;;;;5007735;28;20274;-72
2021/04/27 02:27:30;;;;;;;14.43;3.30;;;13.50;99.90;;;;;;5008418;28;20299;-72
2021/04/27 02:29:58;;;;;;;12.63;2.73;;;13.40;99.90;;;;;;5005812;28;20547;-71
2021/04/27 02:32:24;;;;;;;9.23;2.70;;;13.60;99.90;;;;;;5006255;28;20197;-71
2021/04/27 02:34:51;;;;;;;10.70;2.60;;;13.60;99.90;;;;;;4986704;28;20896;-71
2021/04/27 02:37:18;;;;;;;8.70;2.60;;;13.60;99.90;;;;;;5004682;28;20189;-71
2021/04/27 02:39:45;;;;;;;12.00;3.20;;;13.60;99.90;;;;;;5003369;28;20189;-71
2021/04/27 02:42:12;;;;;;;11.40;2.80;;;13.70;99.90;;;;;;5004389;28;20195;-71
2021/04/27 02:44:38;;;;;;;8.47;2.40;;;13.70;99.90;;;;;;5019814;28;20546;-71
2021/04/27 02:47:05;;;;;;;11.60;2.80;;;13.80;99.90;;;;;;5016207;28;20220;-71
2021/04/27 02:49:36;;;;;;;11.40;2.57;;;14.00;99.90;;;;;;5002610;28;20189;-72
2021/04/27 02:52:02;;;;;;;6.93;2.80;;;14.00;99.90;;;;;;5006521;28;21368;-71
2021/04/27 02:54:29;;;;;;;11.37;2.90;;;14.10;99.90;;;;;;5020699;28;20284;-72
2021/04/27 02:56:55;;;;;;;13.13;2.70;;;14.30;99.90;;;;;;5018700;28;20185;-72
2021/04/27 02:59:21;;;;;;;8.70;2.73;;;14.30;99.90;;;;;;5020726;28;20187;-71
2021/04/27 03:01:48;;;;;;;12.67;2.70;;;14.30;99.90;;;;;;5012302;28;20181;-71
2021/04/27 03:04:14;;;;;;;8.73;2.60;;;14.30;99.90;;;;;;5005893;28;20229;-71
2021/04/27 03:06:40;;;;;;;12.73;3.13;;;14.40;99.90;;;;;;5000025;28;20185;-72
2021/04/27 03:09:06;;;;;;;9.67;3.17;;;14.50;99.90;;;;;;5005855;28;20192;-71
2021/04/27 03:11:33;;;;;;;8.47;2.40;;;14.70;99.90;;;;;;5010466;28;20311;-71
2021/04/27 03:14:00;;;;;;;7.87;2.67;;;14.70;99.90;;;;;;4989710;28;21015;-71
2021/04/27 03:16:26;;;;;;;9.90;3.07;;;14.90;99.90;;;;;;5005691;28;20207;-72
2021/04/27 03:18:53;;;;;;;10.40;2.70;;;15.00;99.90;;;;;;5005349;28;20196;-71
2021/04/27 03:21:19;;;;;;;10.70;3.00;;;15.10;99.90;;;;;;5010729;28;20794;-71
2021/04/27 03:23:46;;;;;;;8.17;2.90;;;15.10;99.90;;;;;;4987951;28;20197;-71
2021/04/27 03:26:13;;;;;;;12.83;2.90;;;15.10;99.90;;;;;;5007282;28;20653;-74
2021/04/27 03:28:42;;;;;;;7.60;2.87;;;15.20;99.90;;;;;;5022947;28;20189;-73
2021/04/27 03:31:09;;;;;;;9.23;2.93;;;15.30;99.90;;;;;;5006758;28;20201;-73
2021/04/27 03:33:35;;;;;;;8.77;2.70;;;15.30;99.90;;;;;;5001129;28;20213;-72
2021/04/27 03:36:02;;;;;;;12.87;2.93;;;15.30;99.90;;;;;;5005642;28;20212;-73
2021/04/27 03:38:28;;;;;;;11.07;3.07;;;15.40;99.90;;;;;;5006590;28;20196;-73
2021/04/27 03:40:55;;;;;;;8.60;3.60;;;15.50;99.90;;;;;;5006623;28;20243;-72
2021/04/27 03:43:21;;;;;;;5.53;2.83;;;15.50;99.90;;;;;;5007651;28;20214;-73
2021/04/27 03:45:48;;;;;;;12.60;3.20;;;15.60;99.90;;;;;;5002943;28;20181;-73
2021/04/27 03:48:18;;;;;;;10.20;2.93;;;15.60;99.90;;;;;;5004688;28;20231;-74
2021/04/27 03:50:46;;;;;;;9.40;3.13;;;15.60;99.90;;;;;;5000142;28;20663;-74
2021/04/27 03:53:13;;;;;;;6.33;2.77;;;15.60;99.90;;;;;;5008802;28;20264;-73
2021/04/27 03:55:40;;;;;;;10.40;2.63;;;15.60;99.90;;;;;;4998834;28;22144;-74
2021/04/27 03:58:08;;;;;;;9.10;2.57;;;15.60;99.90;;;;;;5014337;28;20185;-73
2021/04/27 04:00:36;;;;;;;8.33;2.73;;;15.60;99.90;;;;;;4991178;28;20644;-73
2021/04/27 04:03:03;;;;;;;7.53;3.03;;;15.60;99.90;;;;;;4999770;28;20216;-73
2021/04/27 04:05:38;;;;;;;9.03;2.80;;;15.60;99.90;;;;;;5004532;28;20523;-73
2021/04/27 04:08:05;;;;;;;10.17;2.83;;;15.60;99.90;;;;;;5005722;28;20196;-73
2021/04/27 04:10:31;;;;;;;8.03;2.70;;;15.50;99.90;;;;;;5005547;28;20200;-73
2021/04/27 04:12:58;;;;;;;8.97;3.07;;;15.60;99.90;;;;;;5002547;28;20193;-73
2021/04/27 04:15:24;;;;;;;8.93;2.93;;;15.50;99.90;;;;;;5005570;28;20197;-73
2021/04/27 04:17:50;;;;;;;9.57;3.03;;;15.60;99.90;;;;;;5017682;28;20213;-73
2021/04/27 04:20:24;;;;;;;6.17;2.77;;;15.50;99.90;;;;;;5004916;28;20196;-73
2021/04/27 04:22:51;;;;;;;9.70;3.03;;;15.50;99.90;;;;;;5000925;28;20181;-73
2021/04/27 04:25:19;;;;;;;7.63;3.13;;;15.50;99.90;;;;;;5004133;28;20262;-73
2021/04/27 04:27:46;;;;;;;7.50;3.27;;;15.50;99.90;;;;;;4992232;28;20276;-74
2021/04/27 04:30:23;;;;;;;9.80;2.90;;;15.40;99.90;;;;;;5002123;28;20251;-73
2021/04/27 04:32:51;;;;;;;8.43;2.67;;;15.40;99.90;;;;;;5005735;28;20189;-73
2021/04/27 04:35:20;;;;;;;7.20;3.10;;;15.40;99.90;;;;;;5004739;28;20205;-72
2021/04/27 04:37:48;;;;;;;6.00;2.80;;;15.30;99.90;;;;;;5008309;28;20638;-73
2021/04/27 04:40:16;;;;;;;6.43;3.00;;;15.30;99.90;;;;;;5002566;28;20193;-73
2021/04/27 04:42:44;;;;;;;12.10;2.80;;;15.30;99.90;;;;;;5002395;28;20269;-74
2021/04/27 04:45:13;;;;;;;7.43;2.63;;;15.30;99.90;;;;;;5002243;28;20319;-71
2021/04/27 04:47:41;;;;;;;7.53;3.13;;;15.40;99.90;;;;;;5004430;28;20277;-73
2021/04/27 04:50:12;;;;;;;10.40;3.50;;;15.50;99.90;;;;;;5002216;28;20193;-74
2021/04/27 04:52:38;;;;;;;7.63;3.13;;;15.60;99.90;;;;;;5002220;28;20260;-74
2021/04/27 04:55:10;;;;;;;11.83;3.40;;;15.70;99.90;;;;;;5015798;28;20189;-73
2021/04/27 04:57:37;;;;;;;5.77;3.23;;;15.80;99.90;;;;;;5020419;28;20197;-73
2021/04/27 05:00:12;;;;;;;7.40;2.83;;;16.00;99.90;;;;;;5002036;28;20220;-73
2021/04/27 05:02:39;;;;;;;10.47;3.47;;;16.00;99.90;;;;;;4982894;28;20184;-73
2021/04/27 05:05:07;;;;;;;10.23;3.00;;;16.00;99.90;;;;;;5021375;28;20541;-73
2021/04/27 05:07:41;;;;;;;13.73;3.10;;;16.00;99.90;;;;;;5004677;28;20189;-73
2021/04/27 05:10:08;;;;;;;12.63;3.03;;;16.10;99.90;;;;;;5001398;28;20195;-73
2021/04/27 05:12:34;;;;;;;9.97;3.47;;;16.20;99.90;;;;;;5018269;28;20609;-73
2021/04/27 05:15:01;;;;;;;16.17;3.50;;;16.30;99.90;;;;;;5012375;28;20231;-72
2021/04/27 05:17:28;;;;;;;9.70;3.17;;;16.40;99.90;;;;;;4986583;28;20541;-72
2021/04/27 05:19:54;;;;;;;14.23;3.77;;;16.40;99.90;;;;;;5004246;28;20212;-72
2021/04/27 05:22:21;;;;;;;11.57;3.20;;;16.80;99.90;;;;;;4987719;28;20192;-72
2021/04/27 05:24:47;;;;;;;15.60;4.10;;;17.00;99.90;;;;;;5005499;28;20251;-74
2021/04/27 05:27:14;;;;;;;15.83;3.73;;;17.00;99.90;;;;;;4988404;28;20227;-72
2021/04/27 05:29:41;;;;;;;16.53;4.30;;;16.90;99.90;;;;;;4996574;28;20646;-72
2021/04/27 05:32:07;;;;;;;24.60;5.27;;;16.90;99.90;;;;;;5005205;28;20221;-72
2021/04/27 05:34:34;;;;;;;25.97;6.07;;;17.10;99.90;;;;;;5012763;28;20304;-71
2021/04/27 05:37:02;;;;;;;23.97;5.43;;;17.20;99.90;;;;;;4991478;28;20186;-71
2021/04/27 05:39:29;;;;;;;23.00;6.07;;;17.10;99.90;;;;;;4991786;28;20577;-72
2021/04/27 05:41:55;;;;;;;19.97;4.87;;;17.10;99.90;;;;;;5006473;28;20184;-71
2021/04/27 05:44:22;;;;;;;35.47;7.40;;;17.10;99.90;;;;;;5007767;28;20601;-74
2021/04/27 05:46:48;;;;;;;17.40;6.63;;;17.30;99.90;;;;;;5014338;28;20273;-72
2021/04/27 05:49:15;;;;;;;23.23;6.20;;;17.30;99.90;;;;;;5008154;28;20188;-73
2021/04/27 05:51:41;;;;;;;20.83;6.70;;;17.30;99.90;;;;;;5013354;28;20243;-72
2021/04/27 05:54:08;;;;;;;28.07;7.50;;;17.40;99.90;;;;;;5023775;28;20188;-72
2021/04/27 05:56:35;;;;;;;20.93;6.90;;;17.50;99.90;;;;;;5005374;28;20186;-72
2021/04/27 05:59:03;;;;;;;26.70;6.67;;;17.60;99.90;;;;;;5008158;28;20197;-72
2021/04/27 06:01:31;;;;;;;26.50;7.53;;;17.50;99.90;;;;;;5005729;28;20332;-71
2021/04/27 06:03:59;;;;;;;31.93;7.80;;;17.50;99.90;;;;;;5007609;28;20292;-71
2021/04/27 06:06:26;;;;;;;25.53;7.03;;;17.60;99.90;;;;;;4992797;28;20984;-71
2021/04/27 06:08:52;;;;;;;30.93;6.93;;;17.70;99.90;;;;;;5012273;28;20201;-72
2021/04/27 06:11:18;;;;;;;32.87;7.43;;;17.90;99.90;;;;;;5015268;28;20191;-74
2021/04/27 06:13:45;;;;;;;31.57;8.07;;;18.00;99.90;;;;;;4980595;28;20189;-74
2021/04/27 06:16:12;;;;;;;28.43;7.43;;;17.90;99.90;;;;;;5005891;28;20656;-74
2021/04/27 06:18:39;;;;;;;30.20;7.17;;;17.90;99.90;;;;;;4988601;28;20196;-74
2021/04/27 06:21:06;;;;;;;29.73;6.50;;;17.90;99.90;;;;;;5006386;28;20713;-71
2021/04/27 06:23:33;;;;;;;35.33;7.23;;;17.90;99.90;;;;;;4993199;28;20315;-72
2021/04/27 06:26:00;;;;;;;28.93;7.73;;;18.10;99.90;;;;;;5008176;28;20196;-74
2021/04/27 06:28:26;;;;;;;30.27;7.20;;;18.20;99.90;;;;;;5003832;28;20247;-73
2021/04/27 06:30:52;;;;;;;27.87;8.07;;;18.20;99.90;;;;;;5003026;28;20279;-71
2021/04/27 06:33:19;;;;;;;30.30;7.00;;;18.30;99.90;;;;;;4986093;28;20201;-72
2021/04/27 06:35:45;;;;;;;25.67;7.53;;;18.20;99.90;;;;;;4990346;28;20193;-72
2021/04/27 06:38:16;;;;;;;32.13;7.50;;;18.20;99.90;;;;;;5009702;28;20853;-72
2021/04/27 06:40:49;;;;;;;30.83;6.87;;;18.30;99.90;;;;;;5006664;28;20267;-71
2021/04/27 06:43:16;;;;;;;32.53;6.53;;;18.40;99.90;;;;;;5007514;28;20291;-72
2021/04/27 06:45:43;;;;;;;25.13;6.70;;;18.50;99.90;;;;;;5001153;28;20607;-72
2021/04/27 06:48:10;;;;;;;26.43;7.03;;;18.90;99.90;;;;;;5005916;28;20181;-72
2021/04/27 06:50:39;;;;;;;22.20;6.53;;;19.20;99.90;;;;;;4991031;28;20185;-71
2021/04/27 06:53:08;;;;;;;31.47;7.97;;;19.30;99.90;;;;;;4989500;28;20188;-72
2021/04/27 06:55:34;;;;;;;26.40;7.03;;;19.40;99.90;;;;;;4997957;28;20204;-71
2021/04/27 06:58:10;;;;;;;27.73;7.83;;;19.30;99.90;;;;;;4999173;28;20627;-71
2021/04/27 07:00:39;;;;;;;17.23;6.47;;;19.20;99.90;;;;;;4985823;28;20199;-72
2021/04/27 07:03:06;;;;;;;23.27;6.47;;;19.30;99.90;;;;;;5003450;28;20197;-71
2021/04/27 07:05:34;;;;;;;24.03;6.60;;;19.20;99.90;;;;;;5012067;28;20188;-72
2021/04/27 07:08:01;;;;;;;26.53;7.40;;;19.40;99.90;;;;;;5016599;28;20239;-72
2021/04/27 07:10:27;;;;;;;23.10;6.40;;;19.80;99.90;;;;;;5005263;28;20211;-71
2021/04/27 07:12:54;;;;;;;29.27;6.30;;;20.00;99.90;;;;;;5016798;28;20201;-71
2021/04/27 07:15:23;;;;;;;26.40;6.80;;;20.10;99.90;;;;;;5001492;28;20796;-72
2021/04/27 07:17:50;;;;;;;25.47;6.47;;;20.00;99.90;;;;;;4995476;28;20279;-70
2021/04/27 07:20:17;;;;;;;16.07;5.97;;;20.10;99.90;;;;;;5001474;28;20181;-70
2021/04/27 07:22:44;;;;;;;19.80;5.83;;;20.00;99.90;;;;;;5000822;28;20194;-71
2021/04/27 07:25:14;;;;;;;28.30;5.80;;;20.10;99.90;;;;;;5005439;28;20500;-70
2021/04/27 07:27:42;;;;;;;15.83;4.33;;;20.10;99.90;;;;;;5000388;28;20181;-71
2021/04/27 07:30:11;;;;;;;12.67;3.80;;;20.40;99.90;;;;;;4997030;28;20202;-70
2021/04/27 07:32:38;;;;;;;14.63;4.50;;;20.70;99.90;;;;;;4985433;28;20666;-70
2021/04/27 07:35:06;;;;;;;13.67;4.33;;;20.70;99.90;;;;;;4998622;28;20309;-71
2021/04/27 07:37:34;;;;;;;16.70;4.23;;;21.00;99.90;;;;;;5000707;28;20277;-71
2021/04/27 07:40:01;;;;;;;21.83;4.00;;;21.40;99.90;;;;;;4995734;28;20783;-71
2021/04/27 07:42:27;;;;;;;14.60;4.23;;;21.60;99.90;;;;;;5003488;28;20259;-70
2021/04/27 07:44:54;;;;;;;13.70;4.27;;;21.50;99.90;;;;;;4999837;28;20220;-70
2021/04/27 07:47:20;;;;;;;19.53;3.77;;;21.60;99.90;;;;;;5000834;28;20235;-72
2021/04/27 07:49:47;;;;;;;16.57;4.00;;;21.70;99.90;;;;;;4994989;28;20360;-72
2021/04/27 07:52:14;;;;;;;18.70;4.20;;;21.80;99.90;;;;;;4986812;28;20279;-72
2021/04/27 07:54:41;;;;;;;10.77;3.60;;;21.90;99.90;;;;;;5003323;28;20197;-72
2021/04/27 07:57:08;;;;;;;12.93;4.00;;;22.00;99.90;;;;;;5001175;28;20907;-72
2021/04/27 07:59:34;;;;;;;10.93;3.77;;;22.10;99.90;;;;;;5017441;28;20661;-72
2021/04/27 08:02:01;;;;;;;13.83;3.83;;;22.10;99.90;;;;;;4999810;28;20195;-73
2021/04/27 08:04:31;;;;;;;15.30;3.57;;;22.50;99.90;;;;;;5005641;28;20212;-72
2021/04/27 08:06:57;;;;;;;14.37;3.70;;;22.70;99.90;;;;;;5000290;28;20192;-71
2021/04/27 08:09:23;;;;;;;23.57;5.50;;;22.70;99.90;;;;;;4985376;28;20281;-71
2021/04/27 08:11:50;;;;;;;18.27;5.30;;;22.90;99.90;;;;;;5015520;28;20312;-72
2021/04/27 08:14:26;;;;;;;23.23;4.80;;;22.80;99.90;;;;;;5000225;28;20281;-71
2021/04/27 08:16:52;;;;;;;22.83;6.30;;;22.90;99.90;;;;;;5001071;28;20964;-71
2021/04/27 08:19:19;;;;;;;22.83;6.20;;;22.90;99.90;;;;;;4986785;28;20201;-70
2021/04/27 08:21:45;;;;;;;17.60;6.10;;;22.90;99.90;;;;;;4999164;28;20239;-70
2021/04/27 08:24:12;;;;;;;26.27;6.17;;;22.90;99.90;;;;;;5011984;28;20230;-72
2021/04/27 08:26:39;;;;;;;33.07;6.77;;;23.00;99.90;;;;;;4998676;28;20247;-72
2021/04/27 08:29:05;;;;;;;22.33;6.33;;;23.00;99.90;;;;;;4998394;28;20239;-73
2021/04/27 08:31:32;;;;;;;30.27;7.00;;;22.90;99.90;;;;;;5009335;28;20868;-70
2021/04/27 08:33:59;;;;;;;20.87;6.07;;;22.80;99.90;;;;;;5006503;28;20228;-70
2021/04/27 08:36:27;;;;;;;27.13;6.23;;;22.90;99.90;;;;;;4984928;28;20197;-70
2021/04/27 08:38:54;;;;;;;25.77;6.57;;;22.90;99.90;;;;;;5001217;28;20748;-70
2021/04/27 08:41:30;;;;;;;26.70;6.80;;;22.80;99.90;;;;;;5000289;28;20190;-72
2021/04/27 08:43:59;;;;;;;21.00;6.50;;;22.80;99.90;;;;;;5003020;28;20212;-73
2021/04/27 08:46:26;;;;;;;32.87;7.37;;;22.90;99.90;;;;;;5000200;28;20346;-70
2021/04/27 08:48:53;;;;;;;18.93;5.80;;;22.90;99.90;;;;;;5000997;28;20193;-72
2021/04/27 08:51:21;;;;;;;20.67;6.70;;;23.10;99.90;;;;;;4984102;28;20216;-72
2021/04/27 08:53:49;;;;;;;21.40;6.40;;;23.10;99.90;;;;;;5001878;28;20311;-72
2021/04/27 08:56:15;;;;;;;21.43;5.73;;;23.20;99.90;;;;;;5000181;28;20540;-72
2021/04/27 08:58:42;;;;;;;23.00;6.53;;;23.10;99.90;;;;;;5000227;28;20683;-73
2021/04/27 09:01:08;;;;;;;23.30;7.03;;;23.30;99.90;;;;;;5002658;28;20634;-72
2021/04/27 09:03:50;;;;;;;26.13;6.73;;;23.20;99.90;;;;;;4984081;28;20485;-71
2021/04/27 09:06:20;;;;;;;19.80;6.30;;;23.40;99.90;;;;;;4997521;28;20588;-72
2021/04/27 09:09:06;;;;;;;22.80;6.33;;;23.50;99.90;;;;;;4998457;28;20565;-71
2021/04/27 09:11:52;;;;;;;25.50;6.20;;;23.60;99.90;;;;;;4983748;28;20185;-71
2021/04/27 09:14:21;;;;;;;23.33;7.20;;;23.60;99.90;;;;;;4996776;28;20769;-70
2021/04/27 09:16:49;;;;;;;22.37;6.70;;;23.50;99.90;;;;;;4995575;28;20197;-72
2021/04/27 09:19:39;;;;;;;21.43;6.77;;;23.60;99.90;;;;;;4998441;28;20197;-71
2021/04/27 09:22:17;;;;;;;27.93;7.10;;;23.80;99.90;;;;;;4997931;28;20335;-73
2021/04/27 09:24:50;;;;;;;23.73;6.77;;;23.80;99.90;;;;;;5000248;28;20209;-73
2021/04/27 09:27:37;;;;;;;29.80;6.73;;;24.00;99.90;;;;;;4995509;28;20224;-73
2021/04/27 09:30:17;;;;;;;26.50;7.77;;;24.10;99.90;;;;;;5012949;28;20205;-72
2021/04/27 09:32:52;;;;;;;30.30;7.17;;;24.10;99.90;;;;;;4988730;28;20279;-73
2021/04/27 09:35:50;;;;;;;30.83;7.30;;;24.40;99.90;;;;;;4986766;28;20547;-72
2021/04/27 09:38:24;;;;;;;25.07;6.23;;;24.40;99.90;;;;;;4997677;28;20197;-73
2021/04/27 09:41:02;;;;;;;28.43;6.63;;;24.50;99.90;;;;;;5010000;28;20192;-73
2021/04/27 09:43:40;;;;;;;32.70;7.37;;;24.50;99.90;;;;;;5005135;28;20216;-73
2021/04/27 09:46:11;;;;;;;28.90;6.88;;;24.50;99.90;;;;;;4987651;28;20267;-72
2021/04/27 09:48:38;;;;;;;27.80;7.60;;;24.50;99.90;;;;;;5001797;28;20191;-73
2021/04/27 09:51:14;;;;;;;26.30;7.20;;;24.60;99.90;;;;;;5002606;28;20200;-72
2021/04/27 09:53:56;;;;;;;26.23;6.80;;;24.50;99.90;;;;;;4989101;28;21001;-72
2021/04/27 09:56:49;;;;;;;21.08;7.63;;;24.60;99.90;;;;;;4998966;28;20204;-72
2021/04/27 09:59:18;;;;;;;25.13;6.97;;;24.70;99.90;;;;;;4998541;28;20196;-72
2021/04/27 10:02:01;;;;;;;27.00;6.45;;;24.70;99.90;;;;;;4999346;28;20193;-72
2021/04/27 10:04:28;;;;;;;30.95;7.82;;;24.90;99.90;;;;;;5000133;28;20221;-73
2021/04/27 10:07:00;;;;;;;21.63;6.75;;;25.10;99.90;;;;;;4997599;28;20193;-72
2021/04/27 10:09:28;;;;;;;24.92;6.60;;;25.00;99.90;;;;;;5002064;28;20200;-72
2021/04/27 10:11:59;;;;;;;24.08;6.32;;;25.10;99.90;;;;;;4998914;28;20260;-72
2021/04/27 10:14:28;;;;;;;24.60;6.60;;;25.40;99.90;;;;;;5006268;28;20219;-72
2021/04/27 10:16:55;;;;;;;35.85;7.47;;;25.40;99.90;;;;;;5008014;28;20194;-72
2021/04/27 10:19:22;;;;;;;28.83;5.72;;;25.60;99.90;;;;;;4981354;28;20262;-70
2021/04/27 10:21:49;;;;;;;20.00;5.82;;;25.70;99.90;;;;;;5001392;28;20300;-70
2021/04/27 10:24:23;;;;;;;30.13;6.43;;;25.60;99.90;;;;;;4997967;28;20311;-70
2021/04/27 10:27:36;;;;;;;24.00;6.63;;;25.90;99.90;;;;;;4994818;28;20220;-70
2021/04/27 10:30:18;;;;;;;26.05;6.55;;;26.10;99.90;;;;;;5001541;28;20193;-70
2021/04/27 10:33:03;;;;;;;29.50;6.53;;;26.30;99.90;;;;;;4989495;28;20200;-70
2021/04/27 10:35:38;;;;;;;27.67;6.65;;;26.30;99.90;;;;;;5014815;28;20235;-70
2021/04/27 10:38:13;;;;;;;22.48;6.22;;;26.30;99.90;;;;;;5005162;28;20226;-70
2021/04/27 10:40:51;;;;;;;19.05;6.10;;;26.30;99.90;;;;;;5003645;28;20201;-72
2021/04/27 10:43:27;;;;;;;28.75;6.35;;;26.00;99.90;;;;;;5023404;28;20176;-72
2021/04/27 10:46:18;;;;;;;33.80;7.47;;;26.00;99.90;;;;;;5007066;28;20185;-72
2021/04/27 10:48:46;;;;;;;25.20;6.47;;;25.90;99.90;;;;;;4997451;28;20193;-72
2021/04/27 10:51:29;;;;;;;20.17;6.28;;;26.30;99.90;;;;;;5006316;28;20193;-72
2021/04/27 10:54:34;;;;;;;29.65;7.22;;;26.30;99.90;;;;;;5003392;28;20554;-72
2021/04/27 10:57:06;;;;;;;25.60;6.32;;;26.30;99.90;;;;;;4999215;28;20282;-72
2021/04/27 10:59:57;;;;;;;78.85;8.35;;;26.10;99.90;;;;;;5000362;28;20180;-72
2021/04/27 11:02:29;;;;;;;29.60;7.07;;;25.90;99.90;;;;;;5000097;28;20546;-71
2021/04/27 11:05:14;;;;;;;34.28;8.45;;;25.80;99.90;;;;;;5000619;28;20359;-72
2021/04/27 11:07:41;;;;;;;28.83;7.65;;;25.80;99.90;;;;;;5000408;28;20185;-72
2021/04/27 11:10:16;;;;;;;27.67;7.07;;;25.70;99.90;;;;;;5015593;28;20216;-72
2021/04/27 11:12:55;;;;;;;30.73;7.47;;;25.60;99.90;;;;;;4985081;28;20598;-72
2021/04/27 11:16:18;;;;;;;29.27;6.68;;;25.40;99.90;;;;;;5015495;28;20194;-72
2021/04/27 11:18:47;;;;;;;22.70;6.80;;;25.30;99.90;;;;;;5004695;28;20189;-72
2021/04/27 11:21:13;;;;;;;30.25;6.82;;;25.30;99.90;;;;;;5005983;28;20282;-71
2021/04/27 11:23:46;;;;;;;27.20;7.63;;;25.10;99.90;;;;;;5003801;28;20213;-72
2021/04/27 11:26:34;;;;;;;30.65;6.35;;;25.20;99.90;;;;;;4999325;28;20584;-73
2021/04/27 11:29:29;;;;;;;30.48;6.78;;;25.40;99.90;;;;;;5001509;28;20199;-72
2021/04/27 11:32:09;;;;;;;28.02;7.15;;;25.40;99.90;;;;;;5022175;28;20204;-72
2021/04/27 11:34:55;;;;;;;22.70;6.75;;;25.40;99.90;;;;;;4994570;28;20208;-72
2021/04/27 11:37:31;;;;;;;26.67;6.57;;;25.40;99.90;;;;;;5018728;28;20187;-72
2021/04/27 11:40:12;;;;;;;23.85;6.25;;;25.30;99.90;;;;;;4999510;28;20586;-72
2021/04/27 11:42:39;;;;;;;29.80;7.22;;;25.40;99.90;;;;;;5003220;28;20759;-73
2021/04/27 11:45:12;;;;;;;24.65;6.93;;;25.50;99.90;;;;;;5001784;28;20292;-70
2021/04/27 11:47:42;;;;;;;33.97;6.63;;;25.40;99.90;;;;;;5011501;28;20193;-72
2021/04/27 11:50:21;;;;;;;29.25;6.20;;;25.50;99.90;;;;;;5001386;28;20557;-73
2021/04/27 11:52:54;;;;;;;28.17;6.80;;;25.50;99.90;;;;;;5009635;28;20188;-72
2021/04/27 11:55:37;;;;;;;22.05;6.72;;;25.60;99.90;;;;;;5001877;28;20193;-72
2021/04/27 11:58:08;;;;;;;22.23;6.35;;;25.60;99.90;;;;;;4999953;28;20189;-72
2021/04/27 12:01:03;;;;;;;30.80;7.10;;;25.60;99.90;;;;;;5000024;28;20196;-72
2021/04/27 12:03:45;;;;;;;26.40;6.07;;;25.50;99.90;;;;;;4999518;28;20228;-69
2021/04/27 12:06:19;;;;;;;24.85;6.78;;;25.50;99.90;;;;;;5004643;28;20187;-70
2021/04/27 12:08:52;;;;;;;26.63;6.43;;;25.60;99.90;;;;;;5004460;28;20177;-71
2021/04/27 12:11:25;;;;;;;26.33;6.35;;;25.60;99.90;;;;;;5001832;28;20198;-71
2021/04/27 12:13:54;;;;;;;27.05;6.35;;;25.50;99.90;;;;;;4999662;28;20192;-71
2021/04/27 12:16:33;;;;;;;24.70;6.93;;;25.70;99.90;;;;;;5000359;28;20181;-71
2021/04/27 12:19:36;;;;;;;22.92;6.07;;;25.70;99.90;;;;;;5015629;28;20219;-72
2021/04/27 12:22:05;;;;;;;20.35;6.32;;;25.80;99.90;;;;;;4999379;28;20188;-72
2021/04/27 12:24:36;;;;;;;19.60;6.00;;;25.60;99.90;;;;;;5004127;28;20232;-73
2021/04/27 12:27:23;;;;;;;21.27;6.18;;;25.40;99.90;;;;;;5019350;28;20180;-72
2021/04/27 12:29:50;;;;;;;29.00;6.00;;;25.70;99.90;;;;;;5006491;28;20189;-72
2021/04/27 12:32:26;;;;;;;25.73;6.03;;;25.50;99.90;;;;;;4989917;28;20193;-72
2021/04/27 12:35:20;;;;;;;20.65;5.32;;;25.60;99.90;;;;;;4999440;28;20205;-72
2021/04/27 12:38:19;;;;;;;19.90;5.63;;;25.90;99.90;;;;;;5001314;28;20276;-71
2021/04/27 12:40:57;;;;;;;24.48;6.15;;;25.60;99.90;;;;;;4980496;28;20215;-72
2021/04/27 12:43:32;;;;;;;16.58;5.18;;;25.70;99.90;;;;;;5004782;28;20221;-72
2021/04/27 12:46:00;;;;;;;29.38;6.80;;;25.40;99.90;;;;;;5002855;28;20189;-72
2021/04/27 12:48:33;;;;;;;22.73;6.30;;;25.30;99.90;;;;;;4997032;28;20223;-72
2021/04/27 12:51:05;;;;;;;25.23;5.93;;;25.60;99.90;;;;;;4998580;28;20177;-72
2021/04/27 12:53:44;;;;;;;19.88;4.93;;;25.80;99.90;;;;;;5004897;28;20911;-72
2021/04/27 12:56:18;;;;;;;26.20;5.00;;;25.70;99.90;;;;;;5003215;28;20592;-69